KRNM open on Advanced Server [Closed]

KRNM (Ramona) is open on the advanced server

  • Use rwy 09 for all operations
  • Pattern work accepted
    METAR: KRNM 090053Z 08011KT 10SM CLR 23/M04 A3012 RMK AO2 SLP186 T02331044
    See you there!
1 Like

Now closed. Thanks to all who came!